createdAt,value
2022-09-21T00:02:04.975Z,12.10
2022-09-21T00:06:09.027Z,12.00
2022-09-21T00:10:10.209Z,12.00
2022-09-21T00:14:13.757Z,11.80
2022-09-21T00:18:15.037Z,11.80
2022-09-21T00:22:16.928Z,11.80
2022-09-21T00:26:21.089Z,11.70
2022-09-21T00:30:22.192Z,11.60
2022-09-21T00:34:24.086Z,11.50
2022-09-21T00:38:26.515Z,11.40
2022-09-21T00:42:30.911Z,11.40
2022-09-21T00:46:32.205Z,11.40
2022-09-21T00:50:35.670Z,11.30
2022-09-21T00:54:46.296Z,11.30
2022-09-21T00:58:50.297Z,11.30
2022-09-21T01:02:51.899Z,11.30
2022-09-21T01:06:54.983Z,11.30
2022-09-21T01:11:11.617Z,11.30
2022-09-21T01:15:19.586Z,11.20
2022-09-21T01:19:34.050Z,11.10
2022-09-21T01:23:58.883Z,11.20
2022-09-21T01:28:09.820Z,11.20
2022-09-21T01:32:14.811Z,11.10
2022-09-21T01:36:19.815Z,11.20
2022-09-21T01:40:24.959Z,11.20
2022-09-21T01:44:36.445Z,11.10
2022-09-21T01:48:42.562Z,11.30
2022-09-21T01:52:56.663Z,11.20
2022-09-21T01:57:07.760Z,10.90
2022-09-21T02:01:12.203Z,10.80
2022-09-21T02:05:15.720Z,10.80
2022-09-21T02:09:17.512Z,10.80
2022-09-21T02:13:22.687Z,10.80
2022-09-21T02:17:46.074Z,10.80
2022-09-21T02:21:57.447Z,10.80
2022-09-21T02:26:08.090Z,10.80
2022-09-21T02:30:26.595Z,10.70
2022-09-21T02:34:51.683Z,10.60
2022-09-21T02:38:56.691Z,10.50
2022-09-21T02:43:05.403Z,10.20
2022-09-21T02:47:10.418Z,10.20
2022-09-21T02:51:17.156Z,10.40
2022-09-21T02:55:18.748Z,10.40
2022-09-21T02:59:21.944Z,10.40
2022-09-21T03:03:24.332Z,10.30
2022-09-21T03:07:25.550Z,10.30
2022-09-21T03:11:26.643Z,10.20
2022-09-21T03:15:27.828Z,10.30
2022-09-21T03:19:29.132Z,10.10
2022-09-21T03:23:30.329Z,10.10
2022-09-21T03:27:31.626Z,10.00
2022-09-21T03:31:33.452Z,10.00
2022-09-21T03:35:34.879Z,9.80
2022-09-21T03:39:36.067Z,9.90
2022-09-21T03:43:37.256Z,9.90
2022-09-21T03:47:39.255Z,9.70
2022-09-21T03:51:40.456Z,9.50
2022-09-21T03:55:42.147Z,9.20
2022-09-21T03:59:43.309Z,9.10
2022-09-21T04:03:44.555Z,9.00
2022-09-21T04:07:46.528Z,9.00
2022-09-21T04:11:48.008Z,9.10
2022-09-21T04:15:49.279Z,9.10
2022-09-21T04:19:50.496Z,9.10
2022-09-21T04:23:51.778Z,9.10
2022-09-21T04:27:52.990Z,9.30
2022-09-21T04:31:54.212Z,9.20
2022-09-21T04:35:55.604Z,9.00
2022-09-21T04:39:56.672Z,9.00
2022-09-21T04:43:58.279Z,8.90
2022-09-21T04:47:59.479Z,8.70
2022-09-21T04:52:01.183Z,8.70
2022-09-21T04:56:03.763Z,8.60
2022-09-21T05:00:06.146Z,8.50
2022-09-21T05:04:07.242Z,8.40
2022-09-21T05:08:08.419Z,8.50
2022-09-21T05:12:09.505Z,8.40
2022-09-21T05:16:10.991Z,8.40
2022-09-21T05:20:12.174Z,8.50
2022-09-21T05:24:13.348Z,8.50
2022-09-21T05:28:16.052Z,8.40
2022-09-21T05:32:30.659Z,8.40
2022-09-21T05:36:41.225Z,8.10
2022-09-21T05:40:43.062Z,7.80
2022-09-21T05:44:44.617Z,7.70
2022-09-21T05:48:49.572Z,7.80
2022-09-21T05:52:57.584Z,7.90
2022-09-21T05:57:20.280Z,7.80
2022-09-21T06:01:40.446Z,7.90
2022-09-21T06:05:42.928Z,8.00
2022-09-21T06:09:44.106Z,8.20
2022-09-21T06:13:45.198Z,8.40
2022-09-21T06:17:46.379Z,8.70
2022-09-21T06:21:47.569Z,8.60
2022-09-21T06:25:56.059Z,8.90
2022-09-21T06:29:55.668Z,9.10
2022-09-21T06:33:56.890Z,9.20
2022-09-21T06:38:01.876Z,9.40
2022-09-21T06:42:03.334Z,9.60
2022-09-21T06:46:05.117Z,9.70
2022-09-21T06:50:07.229Z,9.60
2022-09-21T06:54:08.656Z,9.80
2022-09-21T06:58:12.246Z,9.90
2022-09-21T07:02:13.374Z,10.30
2022-09-21T07:06:15.016Z,10.60
2022-09-21T07:10:20.528Z,10.80
2022-09-21T07:14:21.844Z,10.80
2022-09-21T07:18:23.149Z,11.10
2022-09-21T07:22:24.340Z,11.10
2022-09-21T07:26:25.673Z,11.30
2022-09-21T07:30:27.156Z,11.70
2022-09-21T07:34:28.356Z,12.10
2022-09-21T07:38:29.543Z,12.30
2022-09-21T07:42:30.641Z,12.30
2022-09-21T07:46:31.813Z,12.30
2022-09-21T07:50:35.681Z,12.40
2022-09-21T07:54:36.884Z,12.50
2022-09-21T07:58:58.120Z,12.50
2022-09-21T08:03:00.763Z,12.30
2022-09-21T08:07:01.937Z,12.80
2022-09-21T08:11:05.155Z,13.40
2022-09-21T08:15:07.562Z,13.70
2022-09-21T08:19:08.803Z,14.00
2022-09-21T08:23:11.174Z,14.30
2022-09-21T08:27:12.364Z,14.10
2022-09-21T08:31:13.485Z,14.30
2022-09-21T08:35:14.760Z,14.50
2022-09-21T08:39:15.854Z,14.50
2022-09-21T08:43:35.503Z,14.40
2022-09-21T08:47:47.904Z,14.20
2022-09-21T08:51:52.913Z,14.60
2022-09-21T08:55:57.495Z,14.80
2022-09-21T09:00:00.225Z,15.80
2022-09-21T09:04:29.365Z,16.60
2022-09-21T09:09:08.097Z,16.40
2022-09-21T09:13:39.047Z,16.80
2022-09-21T09:18:00.587Z,17.10
2022-09-21T09:22:05.121Z,17.40
2022-09-21T09:26:16.174Z,17.60
2022-09-21T09:30:24.985Z,17.60
2022-09-21T09:34:35.580Z,18.30
2022-09-21T09:38:40.582Z,17.70
2022-09-21T09:42:54.608Z,18.60
2022-09-21T09:47:19.222Z,18.50
2022-09-21T09:51:20.409Z,19.40
2022-09-21T09:55:25.266Z,19.50
2022-09-21T09:59:33.280Z,19.90
2022-09-21T10:03:35.550Z,18.90
2022-09-21T10:07:40.084Z,19.60
2022-09-21T10:11:41.302Z,20.10
2022-09-21T10:15:52.108Z,20.30
2022-09-21T10:20:07.456Z,20.30
2022-09-21T10:24:30.368Z,20.30
2022-09-21T10:28:31.897Z,20.70
2022-09-21T10:32:36.119Z,20.90
2022-09-21T10:36:38.188Z,20.80
2022-09-21T10:40:39.725Z,21.00
2022-09-21T10:44:44.406Z,20.90
2022-09-21T10:48:46.003Z,20.90
2022-09-21T10:52:49.106Z,21.20
2022-09-21T10:56:54.225Z,21.00
2022-09-21T11:00:57.635Z,21.10
2022-09-21T11:05:14.338Z,20.80
2022-09-21T11:09:25.358Z,21.00
2022-09-21T11:13:36.089Z,21.40
2022-09-21T11:17:41.080Z,21.80
2022-09-21T11:22:04.413Z,21.70
2022-09-21T11:26:21.179Z,21.40
2022-09-21T11:30:22.680Z,20.90
2022-09-21T11:34:37.167Z,21.40
2022-09-21T11:38:48.125Z,21.30
2022-09-21T11:42:59.146Z,21.70
2022-09-21T11:47:22.492Z,21.50
2022-09-21T11:51:57.253Z,21.10
2022-09-21T11:56:00.802Z,21.50
2022-09-21T12:00:05.955Z,21.40
2022-09-21T12:04:26.813Z,21.20
2022-09-21T12:08:50.395Z,20.80
2022-09-21T12:12:58.426Z,21.40
2022-09-21T12:17:22.711Z,21.60
2022-09-21T12:21:30.878Z,21.70
2022-09-21T12:25:36.001Z,21.60
2022-09-21T12:29:49.718Z,21.10
2022-09-21T12:34:04.040Z,21.30
2022-09-21T12:38:12.057Z,21.30
2022-09-21T12:42:26.367Z,21.20
2022-09-21T12:46:40.316Z,21.60
2022-09-21T12:50:51.483Z,20.90
2022-09-21T12:55:13.546Z,21.10
2022-09-21T12:59:42.842Z,21.00
2022-09-21T13:03:52.639Z,21.10
2022-09-21T13:08:03.888Z,20.70
2022-09-21T13:12:14.870Z,20.20
2022-09-21T13:16:28.976Z,19.60
2022-09-21T13:20:39.121Z,19.80
2022-09-21T13:24:44.806Z,20.40
2022-09-21T13:28:59.458Z,20.80
2022-09-21T13:33:02.968Z,20.80
2022-09-21T13:37:10.951Z,21.20
2022-09-21T13:41:45.366Z,21.30
2022-09-21T13:45:39.696Z,21.30
2022-09-21T13:49:51.446Z,21.20
2022-09-21T13:53:58.324Z,21.30
2022-09-21T13:58:04.396Z,21.50
2022-09-21T14:02:09.448Z,21.10
2022-09-21T14:06:24.380Z,21.00
2022-09-21T14:10:26.884Z,21.20
2022-09-21T14:14:32.204Z,21.00
2022-09-21T14:18:37.584Z,20.50
2022-09-21T14:22:40.870Z,19.90
2022-09-21T14:26:49.055Z,19.70
2022-09-21T14:30:54.100Z,19.90
2022-09-21T14:34:59.117Z,19.80
2022-09-21T14:39:03.601Z,20.00
2022-09-21T14:43:14.754Z,19.90
2022-09-21T14:47:31.809Z,20.10
2022-09-21T14:51:55.744Z,20.20
2022-09-21T14:56:09.381Z,20.20
2022-09-21T15:00:14.392Z,20.20
2022-09-21T15:04:43.922Z,20.30
2022-09-21T15:09:16.404Z,19.40
2022-09-21T15:13:38.067Z,19.10
2022-09-21T15:17:54.030Z,19.30
2022-09-21T15:21:58.512Z,19.90
2022-09-21T15:26:03.513Z,19.70
2022-09-21T15:30:06.287Z,19.90
2022-09-21T15:34:10.359Z,19.90
2022-09-21T15:38:31.885Z,19.70
2022-09-21T15:42:36.418Z,19.60
2022-09-21T15:46:39.418Z,19.90
2022-09-21T15:50:42.891Z,19.90
2022-09-21T15:54:49.500Z,19.50
2022-09-21T15:58:55.490Z,19.50
2022-09-21T16:03:05.400Z,19.50
2022-09-21T16:07:26.039Z,19.20
2022-09-21T16:11:31.034Z,19.00
2022-09-21T16:15:32.434Z,19.30
2022-09-21T16:19:41.442Z,19.40
2022-09-21T16:23:42.662Z,19.60
2022-09-21T16:28:02.628Z,19.40
2022-09-21T16:32:24.930Z,19.30
2022-09-21T16:36:32.714Z,19.30
2022-09-21T16:40:33.920Z,19.00
2022-09-21T16:44:38.387Z,18.70
2022-09-21T16:48:39.673Z,18.60
2022-09-21T16:52:40.848Z,18.40
2022-09-21T16:56:42.112Z,18.60
2022-09-21T17:00:44.857Z,18.40
2022-09-21T17:04:47.312Z,18.70
2022-09-21T17:08:49.098Z,18.60
2022-09-21T17:12:51.304Z,18.70
2022-09-21T17:16:56.671Z,18.60
2022-09-21T17:20:58.469Z,18.50
2022-09-21T17:24:59.630Z,18.20
2022-09-21T17:29:02.934Z,18.10
2022-09-21T17:33:05.390Z,18.10
2022-09-21T17:37:08.796Z,17.90
2022-09-21T17:41:24.555Z,17.80
2022-09-21T17:45:41.483Z,17.70
2022-09-21T17:49:42.923Z,17.40
2022-09-21T17:53:44.324Z,17.30
2022-09-21T17:58:16.584Z,17.20
2022-09-21T18:02:23.088Z,17.10
2022-09-21T18:06:25.304Z,16.90
2022-09-21T18:10:28.859Z,16.80
2022-09-21T18:14:53.630Z,16.50
2022-09-21T18:19:19.349Z,16.40
2022-09-21T18:23:36.753Z,16.10
2022-09-21T18:27:39.090Z,16.00
2022-09-21T18:32:05.776Z,15.90
2022-09-21T18:36:17.413Z,15.80
2022-09-21T18:40:42.525Z,15.80
2022-09-21T18:44:50.236Z,15.70
2022-09-21T18:49:04.875Z,15.40
2022-09-21T18:53:21.718Z,15.30
2022-09-21T18:57:23.455Z,15.30
2022-09-21T19:01:27.484Z,15.10
2022-09-21T19:05:29.292Z,15.00
2022-09-21T19:09:34.648Z,14.90
2022-09-21T19:13:45.264Z,14.80
2022-09-21T19:18:10.229Z,14.80
2022-09-21T19:22:32.416Z,14.70
2022-09-21T19:26:53.525Z,14.50
2022-09-21T19:31:00.541Z,14.50
2022-09-21T19:35:14.795Z,14.50
2022-09-21T19:43:27.756Z,14.40
2022-09-21T19:47:35.920Z,14.30
2022-09-21T19:51:40.906Z,14.10
2022-09-21T19:56:01.441Z,13.90
2022-09-21T20:00:06.212Z,13.90
2022-09-21T20:04:14.285Z,13.90
2022-09-21T20:08:30.895Z,13.80
2022-09-21T20:12:42.222Z,13.70
2022-09-21T20:16:49.771Z,13.70
2022-09-21T20:20:51.274Z,13.60
2022-09-21T20:25:08.320Z,13.50
2022-09-21T20:29:09.771Z,13.30
2022-09-21T20:33:14.160Z,13.30
2022-09-21T20:37:16.561Z,13.30
2022-09-21T20:41:18.420Z,13.20
2022-09-21T20:45:19.700Z,13.20
2022-09-21T20:49:20.891Z,13.20
2022-09-21T20:53:23.726Z,13.10
2022-09-21T20:57:24.882Z,13.00
2022-09-21T21:01:26.473Z,13.00
2022-09-21T21:05:28.571Z,12.80
2022-09-21T21:09:30.319Z,12.80
2022-09-21T21:13:32.350Z,12.90
2022-09-21T21:17:35.149Z,12.80
2022-09-21T21:21:36.339Z,12.70
2022-09-21T21:25:37.471Z,12.60
2022-09-21T21:29:38.653Z,12.50
2022-09-21T21:33:40.418Z,12.50
2022-09-21T21:37:41.593Z,12.40
2022-09-21T21:41:43.480Z,12.40
2022-09-21T21:45:48.736Z,12.40
2022-09-21T21:49:49.881Z,12.30
2022-09-21T21:53:51.316Z,12.30
2022-09-21T21:57:52.459Z,12.20
2022-09-21T22:01:54.084Z,12.10
2022-09-21T22:05:55.652Z,12.10
2022-09-21T22:09:56.847Z,12.00
2022-09-21T22:14:00.569Z,12.00
2022-09-21T22:18:01.733Z,12.00
2022-09-21T22:22:02.931Z,12.00
2022-09-21T22:26:16.160Z,11.90
2022-09-21T22:30:17.324Z,11.90
2022-09-21T22:34:19.495Z,11.90
2022-09-21T22:38:20.737Z,11.90
2022-09-21T22:42:22.622Z,11.90
2022-09-21T22:46:25.938Z,11.90
2022-09-21T22:50:27.157Z,11.80
2022-09-21T22:54:28.353Z,11.80
2022-09-21T22:58:31.454Z,11.70
2022-09-21T23:02:33.764Z,11.80
2022-09-21T23:06:38.768Z,11.90
2022-09-21T23:10:39.935Z,11.80
2022-09-21T23:14:41.040Z,11.60
2022-09-21T23:18:43.533Z,11.40
2022-09-21T23:22:44.859Z,11.30
2022-09-21T23:26:47.081Z,11.20
2022-09-21T23:30:48.344Z,11.10
2022-09-21T23:34:49.766Z,11.10
2022-09-21T23:38:51.591Z,11.00
2022-09-21T23:42:52.774Z,11.00
2022-09-21T23:46:54.019Z,11.10
2022-09-21T23:50:56.357Z,11.00
2022-09-21T23:54:57.558Z,10.70
2022-09-21T23:58:59.514Z,10.70
